Time;durP1;ratioP1;P1;durP2;ratioP2;P2;SDS_P1;SDS_P2;PMS_P1;PMS_P2;Temp;Humidity;BMP_temperature;BMP_pressure;BME280_temperature;BME280_humidity;BME280_pressure;Samples;Min_cycle;Max_cycle;Signal;HPM_P1;HPM_P2
2021/11/04 00:00:17;;;;;;;15.98;6.32;;;8.40;98.50;;;;;;5013721;28;20037;-75
2021/11/04 00:02:43;;;;;;;15.30;6.50;;;8.40;98.50;;;;;;5014668;28;20357;-75
2021/11/04 00:05:09;;;;;;;14.50;6.80;;;8.40;98.50;;;;;;5013775;28;20021;-73
2021/11/04 00:07:35;;;;;;;15.60;6.82;;;8.40;98.50;;;;;;5013612;28;20021;-74
2021/11/04 00:10:01;;;;;;;13.90;6.50;;;8.40;98.50;;;;;;5013280;28;20488;-74
2021/11/04 00:12:27;;;;;;;12.35;5.88;;;8.40;98.50;;;;;;5013455;28;20469;-74
2021/11/04 00:14:52;;;;;;;14.50;5.80;;;8.40;98.50;;;;;;5014426;28;20109;-76
2021/11/04 00:17:18;;;;;;;14.95;6.13;;;8.40;98.40;;;;;;5014533;28;20374;-74
2021/11/04 00:19:44;;;;;;;12.68;5.90;;;8.40;98.40;;;;;;5013612;28;20334;-74
2021/11/04 00:22:10;;;;;;;13.75;6.53;;;8.40;98.40;;;;;;5013993;28;20021;-74
2021/11/04 00:24:37;;;;;;;12.85;5.38;;;8.30;98.50;;;;;;5014104;28;20393;-74
2021/11/04 00:27:02;;;;;;;13.43;5.72;;;8.20;98.50;;;;;;5014216;28;20013;-75
2021/11/04 00:29:28;;;;;;;11.15;4.75;;;8.30;98.50;;;;;;5014167;28;20029;-74
2021/11/04 00:31:54;;;;;;;13.73;5.78;;;8.30;98.50;;;;;;5014825;28;20085;-77
2021/11/04 00:34:20;;;;;;;10.43;5.03;;;8.20;98.50;;;;;;5014752;28;20103;-74
2021/11/04 00:36:45;;;;;;;13.35;5.38;;;8.20;98.50;;;;;;5013066;28;20022;-74
2021/11/04 00:39:12;;;;;;;11.02;4.60;;;8.10;98.50;;;;;;5012874;28;20105;-74
2021/11/04 00:41:39;;;;;;;15.10;5.13;;;8.10;98.50;;;;;;5013025;28;20018;-74
2021/11/04 00:44:05;;;;;;;10.32;4.10;;;8.00;98.60;;;;;;5014121;28;20064;-74
2021/11/04 00:46:31;;;;;;;10.73;4.68;;;8.00;98.60;;;;;;5012788;28;20402;-74
2021/11/04 00:48:57;;;;;;;10.75;4.10;;;7.90;98.70;;;;;;5014075;28;20068;-74
2021/11/04 00:51:23;;;;;;;10.20;3.85;;;7.90;98.70;;;;;;5014043;28;20030;-74
2021/11/04 00:53:50;;;;;;;12.00;4.95;;;7.90;98.70;;;;;;5014861;28;20106;-75
2021/11/04 00:56:15;;;;;;;10.40;4.60;;;7.90;98.70;;;;;;5013914;28;20022;-76
2021/11/04 00:58:41;;;;;;;11.52;5.15;;;7.90;98.70;;;;;;5012945;28;20096;-75
2021/11/04 01:01:07;;;;;;;12.63;5.28;;;7.90;98.60;;;;;;5013889;28;20516;-73
2021/11/04 01:03:32;;;;;;;12.25;4.95;;;7.90;98.50;;;;;;5014419;28;20028;-74
2021/11/04 01:05:59;;;;;;;9.32;4.40;;;7.90;98.40;;;;;;5013855;28;20041;-75
2021/11/04 01:08:25;;;;;;;10.68;4.55;;;7.80;98.50;;;;;;5012518;28;20018;-74
2021/11/04 01:10:51;;;;;;;11.02;4.50;;;7.80;98.50;;;;;;5013601;28;20030;-74
2021/11/04 01:13:16;;;;;;;9.65;3.85;;;7.90;98.50;;;;;;5013790;28;20029;-74
2021/11/04 01:15:42;;;;;;;11.35;3.85;;;7.90;98.50;;;;;;5013380;28;20496;-74
2021/11/04 01:18:08;;;;;;;9.88;4.32;;;7.80;98.50;;;;;;5013592;28;20010;-74
2021/11/04 01:20:34;;;;;;;8.90;4.13;;;7.90;98.50;;;;;;5013559;28;20022;-74
2021/11/04 01:23:00;;;;;;;12.63;4.93;;;7.80;98.50;;;;;;5012868;28;20052;-74
2021/11/04 01:25:26;;;;;;;12.15;4.45;;;7.80;98.50;;;;;;5013516;28;20098;-73
2021/11/04 01:27:51;;;;;;;8.77;3.92;;;7.80;98.50;;;;;;5012475;28;20018;-74
2021/11/04 01:30:17;;;;;;;9.65;4.57;;;7.70;98.40;;;;;;5012097;28;20072;-75
2021/11/04 01:32:43;;;;;;;8.05;4.05;;;7.80;98.60;;;;;;5013515;28;20046;-74
2021/11/04 01:35:09;;;;;;;8.55;3.78;;;7.70;98.50;;;;;;5012199;28;20450;-73
2021/11/04 01:37:35;;;;;;;12.30;4.75;;;7.80;98.50;;;;;;5012016;28;20026;-74
2021/11/04 01:40:02;;;;;;;10.02;3.80;;;7.80;98.40;;;;;;5011988;28;20026;-74
2021/11/04 01:42:28;;;;;;;9.38;4.43;;;7.70;98.40;;;;;;5012792;28;20025;-74
2021/11/04 01:44:53;;;;;;;9.70;4.40;;;7.70;98.50;;;;;;5013352;28;20128;-74
2021/11/04 01:47:19;;;;;;;9.77;4.10;;;7.80;98.50;;;;;;5011914;28;20025;-74
2021/11/04 01:49:45;;;;;;;8.50;3.75;;;7.80;98.50;;;;;;5011902;28;20017;-73
2021/11/04 01:52:11;;;;;;;12.73;5.28;;;7.80;98.50;;;;;;5012601;28;20078;-74
2021/11/04 01:54:37;;;;;;;7.95;3.85;;;7.80;98.50;;;;;;5011880;28;20018;-74
2021/11/04 01:57:04;;;;;;;8.32;3.80;;;7.80;98.50;;;;;;5011855;28;20049;-76
2021/11/04 01:59:30;;;;;;;10.63;3.85;;;7.80;98.50;;;;;;5012959;28;20028;-73
2021/11/04 02:02:08;;;;;;;7.95;3.88;;;7.80;98.40;;;;;;5011815;28;20112;-74
2021/11/04 02:04:58;;;;;;;9.90;4.25;;;7.80;98.40;;;;;;5012150;28;20052;-74
2021/11/04 02:07:51;;;;;;;9.25;3.85;;;7.80;98.40;;;;;;5013549;28;20021;-74
2021/11/04 02:10:31;;;;;;;11.60;4.13;;;7.80;98.40;;;;;;5013754;28;20026;-73
2021/11/04 02:13:18;;;;;;;15.82;4.18;;;7.80;98.40;;;;;;5012048;28;20052;-74
2021/11/04 02:15:47;;;;;;;9.50;4.63;;;7.80;98.30;;;;;;5011860;28;20029;-74
2021/11/04 02:18:15;;;;;;;11.75;4.70;;;7.70;98.30;;;;;;5012934;28;20156;-74
2021/11/04 02:20:53;;;;;;;11.48;4.57;;;7.70;98.60;;;;;;5012952;28;20034;-74
2021/11/04 02:23:29;;;;;;;10.93;4.63;;;7.70;98.50;;;;;;5013454;28;20018;-74
2021/11/04 02:25:55;;;;;;;9.35;4.72;;;7.70;98.40;;;;;;5013000;28;20053;-74
2021/11/04 02:28:22;;;;;;;9.68;4.50;;;7.70;98.40;;;;;;5012778;28;20021;-72
2021/11/04 02:30:48;;;;;;;12.18;4.90;;;7.70;98.50;;;;;;5012822;28;20026;-73
2021/11/04 02:33:16;;;;;;;10.60;4.47;;;7.70;98.40;;;;;;5013614;28;20041;-74
2021/11/04 02:35:49;;;;;;;13.80;5.15;;;7.80;98.40;;;;;;5016569;28;20446;-73
2021/11/04 02:38:20;;;;;;;9.18;4.43;;;7.80;98.40;;;;;;5017029;28;20032;-74
2021/11/04 02:40:46;;;;;;;12.50;4.95;;;7.80;98.30;;;;;;5016564;28;20021;-73
2021/11/04 02:43:16;;;;;;;10.50;5.30;;;7.80;98.40;;;;;;5015092;28;20109;-74
2021/11/04 02:45:42;;;;;;;11.50;5.75;;;7.80;98.30;;;;;;5015345;28;20018;-74
2021/11/04 02:48:09;;;;;;;12.95;5.38;;;7.90;98.30;;;;;;5016260;28;20100;-73
2021/11/04 02:50:35;;;;;;;12.43;5.10;;;7.90;98.30;;;;;;5015908;28;20355;-73
2021/11/04 02:53:01;;;;;;;14.70;5.60;;;7.90;98.30;;;;;;5016230;28;20024;-73
2021/11/04 02:55:38;;;;;;;12.98;5.45;;;8.00;98.30;;;;;;5016392;28;20361;-74
2021/11/04 02:58:06;;;;;;;13.63;5.65;;;8.00;98.30;;;;;;5015206;28;20098;-74
2021/11/04 03:00:34;;;;;;;13.43;5.10;;;8.10;98.40;;;;;;5015596;28;20018;-74
2021/11/04 03:02:59;;;;;;;11.63;5.13;;;8.10;98.30;;;;;;5016158;28;20014;-73
2021/11/04 03:05:25;;;;;;;12.18;5.43;;;8.10;98.30;;;;;;5016402;28;20033;-75
2021/11/04 03:07:51;;;;;;;11.95;6.13;;;8.10;98.30;;;;;;5014373;28;20022;-73
2021/11/04 03:10:18;;;;;;;15.48;5.60;;;8.10;98.20;;;;;;5015180;28;20026;-73
2021/11/04 03:12:44;;;;;;;11.43;4.97;;;8.10;98.20;;;;;;5014569;28;20052;-76
2021/11/04 03:15:14;;;;;;;11.70;5.68;;;8.20;98.20;;;;;;5015560;28;20129;-75
2021/11/04 03:17:41;;;;;;;12.85;5.55;;;8.20;98.20;;;;;;5015242;28;20438;-75
2021/11/04 03:20:09;;;;;;;10.85;5.50;;;8.20;98.10;;;;;;5014375;28;20018;-75
2021/11/04 03:22:35;;;;;;;10.77;4.93;;;8.20;98.10;;;;;;5015447;28;20032;-74
2021/11/04 03:25:02;;;;;;;9.73;4.53;;;8.20;98.10;;;;;;5015632;28;20018;-75
2021/11/04 03:27:28;;;;;;;10.40;5.32;;;8.10;98.10;;;;;;5015573;28;20014;-75
2021/11/04 03:29:55;;;;;;;13.80;5.53;;;8.20;98.10;;;;;;5014304;28;20445;-75
2021/11/04 03:32:22;;;;;;;12.27;5.40;;;8.10;98.10;;;;;;5015632;28;20038;-75
2021/11/04 03:34:49;;;;;;;11.80;5.55;;;8.20;98.50;;;;;;5015634;28;20018;-75
2021/11/04 03:37:17;;;;;;;12.43;5.72;;;8.20;98.20;;;;;;5014259;28;20385;-75
2021/11/04 03:39:43;;;;;;;19.38;7.07;;;8.20;98.20;;;;;;5015102;28;20057;-75
2021/11/04 03:42:11;;;;;;;13.43;5.88;;;8.20;98.20;;;;;;5015748;28;20113;-74
2021/11/04 03:44:40;;;;;;;15.25;6.40;;;8.20;98.20;;;;;;5014934;28;20021;-75
2021/11/04 03:47:07;;;;;;;14.00;6.10;;;8.30;98.20;;;;;;5015292;28;20021;-75
2021/11/04 03:49:34;;;;;;;16.02;6.90;;;8.30;98.10;;;;;;5014198;28;20358;-73
2021/11/04 03:52:00;;;;;;;14.65;6.82;;;8.30;98.10;;;;;;5015030;28;20030;-74
2021/11/04 03:54:27;;;;;;;15.25;6.88;;;8.30;98.10;;;;;;5015005;28;20079;-75
2021/11/04 03:56:54;;;;;;;14.57;6.82;;;8.30;98.10;;;;;;5015125;28;20022;-72
2021/11/04 03:59:20;;;;;;;14.98;7.95;;;8.30;98.10;;;;;;5014976;28;20068;-74
2021/11/04 04:01:46;;;;;;;17.48;6.75;;;8.30;98.10;;;;;;5015041;28;20022;-76
2021/11/04 04:04:12;;;;;;;17.65;8.05;;;8.30;98.10;;;;;;5013533;28;20503;-75
2021/11/04 04:06:38;;;;;;;20.63;8.07;;;8.40;98.10;;;;;;5013580;28;20018;-74
2021/11/04 04:09:06;;;;;;;25.50;9.95;;;8.40;98.10;;;;;;5013538;28;20524;-75
2021/11/04 04:11:32;;;;;;;23.30;9.60;;;8.40;98.10;;;;;;5014658;28;20136;-75
2021/11/04 04:13:58;;;;;;;22.60;9.30;;;8.40;98.20;;;;;;5015233;28;20053;-75
2021/11/04 04:16:25;;;;;;;25.17;10.27;;;8.40;98.20;;;;;;5014604;28;20395;-74
2021/11/04 04:18:50;;;;;;;24.38;11.18;;;8.30;98.30;;;;;;5014647;28;20022;-75
2021/11/04 04:21:16;;;;;;;25.10;10.95;;;8.40;98.30;;;;;;5014823;28;20088;-75
2021/11/04 04:23:42;;;;;;;22.80;9.23;;;8.40;98.30;;;;;;5014560;28;20104;-74
2021/11/04 04:26:09;;;;;;;25.88;9.93;;;8.40;98.50;;;;;;5013479;28;20017;-74
2021/11/04 04:28:35;;;;;;;20.77;8.82;;;8.50;98.20;;;;;;5014654;28;20050;-75
2021/11/04 04:31:01;;;;;;;30.27;10.75;;;8.40;98.20;;;;;;5013012;28;20084;-74
2021/11/04 04:33:27;;;;;;;27.08;11.60;;;8.50;98.20;;;;;;5014221;28;20124;-74
2021/11/04 04:35:53;;;;;;;23.92;10.50;;;8.50;98.20;;;;;;5013368;28;20109;-74
2021/11/04 04:38:19;;;;;;;27.40;11.02;;;8.50;98.20;;;;;;5012937;28;20390;-74
2021/11/04 04:40:44;;;;;;;26.38;11.35;;;8.50;98.30;;;;;;5014238;28;20021;-74
2021/11/04 04:43:10;;;;;;;29.10;12.52;;;8.50;98.30;;;;;;5014651;28;20022;-74
2021/11/04 04:45:36;;;;;;;27.90;11.45;;;8.50;98.30;;;;;;5013826;28;20390;-74
2021/11/04 04:48:03;;;;;;;26.75;11.45;;;8.50;98.30;;;;;;5014050;28;20068;-74
2021/11/04 04:50:28;;;;;;;29.25;11.43;;;8.40;98.30;;;;;;5012714;28;20018;-74
2021/11/04 04:52:54;;;;;;;31.52;12.52;;;8.50;98.30;;;;;;5013975;28;20029;-73
2021/11/04 04:55:20;;;;;;;33.92;13.65;;;8.40;98.30;;;;;;5013719;28;20466;-74
2021/11/04 04:57:46;;;;;;;27.20;12.32;;;8.50;98.30;;;;;;5012828;28;20061;-74
2021/11/04 05:00:13;;;;;;;26.83;11.48;;;8.40;98.30;;;;;;5012383;28;20025;-74
2021/11/04 05:02:41;;;;;;;23.63;9.60;;;8.40;98.30;;;;;;5028791;28;20018;-73
2021/11/04 05:05:08;;;;;;;26.73;12.02;;;8.30;98.40;;;;;;5013559;28;20017;-74
2021/11/04 05:07:34;;;;;;;24.20;11.30;;;8.40;98.40;;;;;;5012653;28;20066;-73
2021/11/04 05:10:02;;;;;;;28.02;11.88;;;8.30;98.40;;;;;;5013714;28;20103;-74
2021/11/04 05:12:27;;;;;;;23.48;11.10;;;8.30;98.40;;;;;;5012221;28;20018;-74
2021/11/04 05:14:53;;;;;;;27.40;11.95;;;8.30;98.40;;;;;;5012292;28;20029;-74
2021/11/04 05:17:19;;;;;;;28.73;12.63;;;8.30;98.40;;;;;;5013323;28;20018;-75
2021/11/04 05:19:45;;;;;;;27.83;12.70;;;8.30;98.40;;;;;;5013631;28;20358;-74
2021/11/04 05:22:11;;;;;;;27.10;11.55;;;8.30;98.50;;;;;;5013319;28;20025;-74
2021/11/04 05:24:36;;;;;;;31.33;13.02;;;8.30;98.50;;;;;;5012128;28;20097;-73
2021/11/04 05:27:04;;;;;;;21.13;9.73;;;8.20;98.40;;;;;;5012276;28;20018;-73
2021/11/04 05:29:30;;;;;;;22.30;9.25;;;8.20;98.50;;;;;;5013378;28;20026;-73
2021/11/04 05:31:57;;;;;;;24.33;10.80;;;8.20;98.50;;;;;;5012048;28;20030;-74
2021/11/04 05:34:23;;;;;;;23.98;9.63;;;8.20;98.50;;;;;;5013208;28;20030;-74
2021/11/04 05:36:48;;;;;;;21.70;9.48;;;8.20;98.50;;;;;;5013574;28;20016;-73
2021/11/04 05:39:14;;;;;;;22.48;9.85;;;8.10;98.60;;;;;;5013842;28;20022;-74
2021/11/04 05:41:40;;;;;;;24.38;10.32;;;8.10;98.70;;;;;;5012972;28;20052;-74
2021/11/04 05:44:06;;;;;;;22.20;8.57;;;8.10;98.70;;;;;;5012004;28;20014;-77
2021/11/04 05:46:31;;;;;;;20.00;9.65;;;8.10;98.70;;;;;;5012768;28;20492;-78
2021/11/04 05:48:57;;;;;;;22.20;9.82;;;8.10;98.70;;;;;;5012669;28;20089;-76
2021/11/04 05:51:23;;;;;;;22.30;9.63;;;8.10;98.70;;;;;;5011469;28;20026;-75
2021/11/04 05:53:48;;;;;;;20.35;9.60;;;8.20;98.70;;;;;;5011798;28;20438;-76
2021/11/04 05:56:14;;;;;;;23.27;9.88;;;8.20;98.70;;;;;;5012404;28;20026;-75
2021/11/04 05:58:40;;;;;;;19.77;9.48;;;8.20;98.70;;;;;;5013095;28;20097;-74
2021/11/04 06:01:05;;;;;;;20.85;9.55;;;8.20;98.70;;;;;;5012998;28;20022;-74
2021/11/04 06:03:31;;;;;;;15.07;8.13;;;8.20;98.60;;;;;;5012748;28;20076;-74
2021/11/04 06:05:56;;;;;;;21.70;9.98;;;8.30;98.70;;;;;;5012973;28;20022;-75
2021/11/04 06:08:22;;;;;;;22.38;9.63;;;8.30;98.60;;;;;;5014222;28;20026;-75
2021/11/04 06:10:48;;;;;;;18.55;9.65;;;8.30;98.60;;;;;;5016646;28;20034;-75
2021/11/04 06:13:13;;;;;;;18.73;9.95;;;8.30;98.60;;;;;;5015611;28;20025;-74
2021/11/04 06:15:39;;;;;;;21.75;9.75;;;8.30;98.60;;;;;;5016958;28;20026;-74
2021/11/04 06:18:05;;;;;;;19.50;9.10;;;8.30;98.70;;;;;;5016968;28;20080;-75
2021/11/04 06:20:30;;;;;;;19.23;9.75;;;8.30;98.70;;;;;;5016243;28;20037;-76
2021/11/04 06:22:57;;;;;;;18.15;8.85;;;8.30;98.60;;;;;;5015210;28;20450;-75
2021/11/04 06:25:23;;;;;;;19.90;9.38;;;8.30;98.70;;;;;;5017205;28;20108;-75
2021/11/04 06:27:49;;;;;;;16.38;8.43;;;8.40;98.70;;;;;;5016780;28;20068;-75
2021/11/04 06:30:15;;;;;;;19.40;9.52;;;8.40;98.70;;;;;;5015359;28;20446;-75
2021/11/04 06:32:41;;;;;;;20.63;9.30;;;8.40;98.60;;;;;;5016391;28;20084;-75
2021/11/04 06:35:08;;;;;;;14.88;7.28;;;8.40;98.50;;;;;;5016625;28;20029;-74
2021/11/04 06:37:35;;;;;;;21.05;10.07;;;8.50;98.50;;;;;;5015165;28;20026;-74
2021/11/04 06:40:02;;;;;;;18.08;8.88;;;8.30;98.50;;;;;;5017031;28;20057;-75
2021/11/04 06:42:28;;;;;;;19.48;9.88;;;8.30;98.50;;;;;;5016362;28;20025;-75
2021/11/04 06:44:54;;;;;;;20.13;9.38;;;8.30;98.60;;;;;;5016586;28;20072;-75
2021/11/04 06:47:35;;;;;;;21.58;10.55;;;8.20;98.60;;;;;;5015032;28;20032;-75
2021/11/04 06:50:02;;;;;;;19.33;9.20;;;8.20;98.50;;;;;;5015682;28;20100;-75
2021/11/04 06:52:44;;;;;;;16.95;8.73;;;8.20;98.50;;;;;;5016045;28;20053;-75
2021/11/04 06:55:10;;;;;;;;;;;8.20;98.50;;;;;;5016194;28;20048;-74
2021/11/04 06:57:41;;;;;;;17.30;8.30;;;8.20;98.50;;;;;;5015035;28;19902;-75
2021/11/04 07:00:09;;;;;;;15.90;7.97;;;8.20;98.30;;;;;;5016342;28;20041;-75
2021/11/04 07:02:37;;;;;;;20.42;8.68;;;8.30;98.40;;;;;;5014692;28;20060;-75
2021/11/04 07:05:04;;;;;;;16.17;8.27;;;8.20;98.30;;;;;;5014623;28;20018;-75
2021/11/04 07:07:44;;;;;;;16.85;8.70;;;8.30;98.30;;;;;;5014208;28;20473;-75
2021/11/04 07:10:11;;;;;;;17.35;8.27;;;8.20;98.30;;;;;;5015955;28;20022;-74
2021/11/04 07:12:45;;;;;;;20.92;9.35;;;8.30;98.40;;;;;;5014450;28;20026;-74
2021/11/04 07:15:12;;;;;;;17.77;9.38;;;8.30;98.30;;;;;;5014234;28;20120;-76
2021/11/04 07:17:41;;;;;;;16.08;8.85;;;8.30;98.30;;;;;;5015400;28;20022;-75
2021/11/04 07:20:07;;;;;;;21.48;9.38;;;8.30;98.30;;;;;;5014230;28;20022;-75
2021/11/04 07:22:51;;;;;;;18.05;8.15;;;8.30;98.30;;;;;;5015376;28;20018;-75
2021/11/04 07:25:20;;;;;;;17.30;8.77;;;8.30;98.30;;;;;;5014285;28;20022;-76
2021/11/04 07:28:12;;;;;;;17.52;9.13;;;8.40;98.30;;;;;;5015565;28;20038;-75
2021/11/04 07:30:39;;;;;;;19.85;9.18;;;8.40;98.20;;;;;;5015532;28;20200;-76
2021/11/04 07:33:05;;;;;;;16.30;8.00;;;8.40;98.20;;;;;;5014134;28;20107;-75
2021/11/04 07:35:34;;;;;;;21.17;8.38;;;8.40;98.30;;;;;;5015691;28;20506;-76
2021/11/04 07:38:00;;;;;;;17.67;9.25;;;8.30;98.30;;;;;;5015126;28;20044;-75
2021/11/04 07:40:28;;;;;;;18.27;8.43;;;8.30;98.30;;;;;;5014012;28;20018;-76
2021/11/04 07:42:55;;;;;;;16.48;7.65;;;8.30;98.30;;;;;;5013903;28;20084;-76
2021/11/04 07:45:22;;;;;;;13.90;7.43;;;8.30;98.40;;;;;;5015275;28;20029;-76
2021/11/04 07:47:48;;;;;;;16.48;8.07;;;8.20;98.40;;;;;;5015189;28;20029;-76
2021/11/04 07:50:18;;;;;;;17.80;7.82;;;8.20;98.40;;;;;;5014812;28;20335;-74
2021/11/04 07:52:45;;;;;;;17.48;8.20;;;8.20;98.50;;;;;;5013683;28;20528;-74
2021/11/04 07:55:11;;;;;;;19.42;8.50;;;8.20;98.50;;;;;;5015368;28;20084;-75
2021/11/04 07:57:39;;;;;;;16.80;7.60;;;8.20;98.50;;;;;;5014931;28;20116;-75
2021/11/04 08:00:29;;;;;;;15.63;8.35;;;8.20;98.50;;;;;;5014897;28;20497;-75
2021/11/04 08:02:54;;;;;;;17.25;6.95;;;8.20;98.50;;;;;;5013997;28;20033;-75
2021/11/04 08:05:20;;;;;;;19.02;8.13;;;8.20;98.50;;;;;;5013487;28;20453;-75
2021/11/04 08:07:46;;;;;;;13.25;7.13;;;8.10;98.50;;;;;;5014751;28;20504;-74
2021/11/04 08:10:14;;;;;;;14.20;6.32;;;8.20;98.50;;;;;;5015582;28;20068;-74
2021/11/04 08:12:40;;;;;;;13.80;5.75;;;8.30;98.50;;;;;;5013469;28;20032;-75
2021/11/04 08:15:08;;;;;;;11.52;5.70;;;8.30;98.30;;;;;;5014723;28;20022;-74
2021/11/04 08:17:36;;;;;;;14.70;6.50;;;8.30;98.30;;;;;;5013423;28;20458;-75
2021/11/04 08:20:03;;;;;;;12.82;6.75;;;8.30;98.40;;;;;;5013934;28;20025;-76
2021/11/04 08:22:29;;;;;;;11.48;5.97;;;8.40;98.30;;;;;;5014453;28;20026;-76
2021/11/04 08:24:54;;;;;;;11.85;6.18;;;8.40;98.20;;;;;;5014487;28;20331;-75
2021/11/04 08:27:20;;;;;;;12.80;6.45;;;8.40;98.30;;;;;;5014524;28;20319;-75
2021/11/04 08:29:47;;;;;;;13.63;6.28;;;8.50;98.20;;;;;;5013321;28;20018;-75
2021/11/04 08:32:12;;;;;;;13.07;6.30;;;8.60;98.10;;;;;;5012780;28;20022;-76
2021/11/04 08:34:39;;;;;;;16.77;8.10;;;8.60;98.00;;;;;;5013003;28;20204;-75
2021/11/04 08:37:05;;;;;;;11.18;5.65;;;8.70;98.10;;;;;;5014285;28;20053;-75
2021/11/04 08:39:31;;;;;;;14.23;6.80;;;8.60;98.00;;;;;;5012558;28;20026;-75
2021/11/04 08:41:57;;;;;;;13.40;6.63;;;8.60;98.00;;;;;;5014141;28;20022;-74
2021/11/04 08:44:24;;;;;;;14.00;6.90;;;8.60;98.10;;;;;;5013985;28;20014;-74
2021/11/04 08:46:50;;;;;;;14.02;6.80;;;8.60;98.10;;;;;;5013002;28;20014;-75
2021/11/04 08:49:16;;;;;;;12.88;6.50;;;8.70;98.00;;;;;;5012998;28;20391;-75
2021/11/04 08:51:43;;;;;;;15.07;7.40;;;8.80;98.00;;;;;;5012274;28;20036;-75
2021/11/04 08:54:09;;;;;;;15.75;7.43;;;8.80;97.90;;;;;;5013805;28;20482;-75
2021/11/04 08:56:36;;;;;;;13.50;7.15;;;8.90;97.90;;;;;;5013979;28;20022;-76
2021/11/04 08:59:05;;;;;;;13.20;6.97;;;8.90;97.80;;;;;;5012584;28;20026;-75
2021/11/04 09:01:33;;;;;;;17.50;8.52;;;8.80;97.80;;;;;;5012438;28;20026;-75
2021/11/04 09:03:58;;;;;;;13.00;6.72;;;8.80;97.80;;;;;;5014339;28;20013;-75
2021/11/04 09:06:24;;;;;;;15.93;8.13;;;8.90;97.80;;;;;;5013847;28;20022;-75
2021/11/04 09:08:50;;;;;;;16.48;7.88;;;8.90;97.80;;;;;;5012772;28;20349;-75
2021/11/04 09:11:16;;;;;;;15.45;7.95;;;8.90;97.80;;;;;;5013693;28;20029;-75
2021/11/04 09:13:42;;;;;;;19.65;8.75;;;8.90;97.70;;;;;;5012225;28;20026;-75
2021/11/04 09:16:08;;;;;;;15.25;7.80;;;8.90;97.70;;;;;;5013644;28;20021;-74
2021/11/04 09:18:33;;;;;;;15.93;7.00;;;9.00;97.80;;;;;;5014003;28;20053;-75
2021/11/04 09:20:59;;;;;;;14.02;7.93;;;9.10;97.70;;;;;;5013612;28;20052;-74
2021/11/04 09:23:25;;;;;;;15.93;7.50;;;9.10;97.70;;;;;;5013262;28;20050;-77
2021/11/04 09:25:51;;;;;;;15.15;7.85;;;9.10;97.70;;;;;;5012149;28;20022;-75
2021/11/04 09:28:16;;;;;;;14.43;7.22;;;9.20;97.60;;;;;;5012392;28;20018;-75
2021/11/04 09:30:42;;;;;;;13.75;7.93;;;9.30;97.70;;;;;;5012018;28;20022;-75
2021/11/04 09:33:14;;;;;;;13.48;7.32;;;9.30;97.60;;;;;;5011699;28;20129;-76
2021/11/04 09:35:39;;;;;;;;;;;9.30;97.60;;;;;;5013195;28;20076;-76
2021/11/04 09:38:06;;;;;;;13.18;6.93;;;9.40;97.50;;;;;;5013474;28;19905;-76
2021/11/04 09:40:32;;;;;;;13.60;6.85;;;9.40;97.40;;;;;;5013000;28;20366;-75
2021/11/04 09:42:59;;;;;;;16.17;7.82;;;9.50;97.40;;;;;;5012842;28;20022;-75
2021/11/04 09:45:27;;;;;;;15.68;7.55;;;9.50;97.40;;;;;;5012918;28;20374;-76
2021/11/04 09:47:53;;;;;;;15.23;7.05;;;9.60;97.40;;;;;;5013133;28;20130;-75
2021/11/04 09:50:19;;;;;;;16.38;8.23;;;9.60;97.30;;;;;;5013080;28;20025;-75
2021/11/04 09:52:49;;;;;;;14.80;8.10;;;9.70;97.30;;;;;;5012974;28;20075;-75
2021/11/04 09:55:20;;;;;;;16.17;8.20;;;9.70;97.30;;;;;;5011772;28;20010;-75
2021/11/04 09:57:50;;;;;;;;;;;9.70;97.30;;;;;;5012024;28;20022;-75
2021/11/04 10:00:18;;;;;;;14.52;7.75;;;9.70;97.30;;;;;;5011731;28;20423;-75
2021/11/04 10:02:45;;;;;;;17.30;9.07;;;9.70;97.20;;;;;;5012321;28;20026;-75
2021/11/04 10:05:14;;;;;;;17.60;9.35;;;9.70;97.20;;;;;;5011717;28;20172;-76
2021/11/04 10:07:48;;;;;;;17.85;8.90;;;9.70;97.30;;;;;;5012953;28;20017;-76
2021/11/04 10:10:20;;;;;;;18.95;10.55;;;9.70;97.20;;;;;;5013175;28;20107;-75
2021/11/04 10:12:56;;;;;;;;;;;9.70;97.20;;;;;;5012006;28;20029;-75
2021/11/04 10:15:22;;;;;;;18.00;8.30;;;9.70;97.20;;;;;;5012487;28;19901;-76
2021/11/04 10:17:48;;;;;;;16.48;9.25;;;9.70;97.20;;;;;;5011747;28;20075;-75
2021/11/04 10:20:18;;;;;;;17.98;9.15;;;9.70;97.20;;;;;;5011904;28;20108;-75
2021/11/04 10:22:44;;;;;;;17.15;9.80;;;9.70;97.30;;;;;;5012761;28;20030;-76
2021/11/04 10:25:24;;;;;;;17.40;9.23;;;9.70;97.30;;;;;;5012674;28;20022;-75
2021/11/04 10:27:50;;;;;;;19.50;9.65;;;9.80;97.30;;;;;;5012535;28;20382;-76
2021/11/04 10:30:39;;;;;;;18.40;9.38;;;9.80;97.20;;;;;;5011529;28;20446;-75
2021/11/04 10:33:26;;;;;;;17.38;8.73;;;9.70;97.20;;;;;;5011774;28;20042;-75
2021/11/04 10:36:09;;;;;;;19.30;9.43;;;9.80;97.30;;;;;;5001970;28;20029;-75
2021/11/04 10:38:39;;;;;;;17.42;9.52;;;9.80;97.20;;;;;;5012736;28;20068;-76
2021/11/04 10:41:25;;;;;;;18.23;9.90;;;9.80;97.20;;;;;;5012858;28;20021;-75
2021/11/04 10:43:56;;;;;;;19.23;9.70;;;9.90;97.20;;;;;;5011351;28;20386;-75
2021/11/04 10:46:23;;;;;;;18.40;9.35;;;9.90;97.10;;;;;;5012961;28;20082;-75
2021/11/04 10:49:01;;;;;;;16.80;9.25;;;9.90;97.00;;;;;;5012622;28;20049;-75
2021/11/04 10:51:27;;;;;;;16.45;7.78;;;9.90;97.10;;;;;;5012479;28;20053;-74
2021/11/04 10:53:56;;;;;;;16.13;7.68;;;9.90;97.20;;;;;;5012566;28;20029;-75
2021/11/04 10:56:23;;;;;;;17.30;8.52;;;9.90;97.20;;;;;;5015255;28;20018;-75
2021/11/04 10:58:57;;;;;;;17.10;8.73;;;9.80;97.20;;;;;;5014791;28;20025;-76
2021/11/04 11:01:31;;;;;;;17.27;9.80;;;9.90;97.20;;;;;;5016071;28;20022;-75
2021/11/04 11:04:02;;;;;;;15.85;8.63;;;9.90;97.20;;;;;;5015491;28;20021;-75
2021/11/04 11:06:31;;;;;;;17.65;8.88;;;10.00;97.20;;;;;;5015071;28;20020;-75
2021/11/04 11:08:59;;;;;;;15.73;8.25;;;10.00;97.10;;;;;;5015864;28;20033;-74
2021/11/04 11:11:25;;;;;;;17.30;8.48;;;10.10;97.10;;;;;;5014640;28;20414;-76
2021/11/04 11:13:51;;;;;;;16.30;8.88;;;10.20;97.00;;;;;;5016152;28;20480;-76
2021/11/04 11:16:17;;;;;;;15.93;9.15;;;10.20;96.90;;;;;;5014666;28;20022;-75
2021/11/04 11:18:44;;;;;;;17.45;10.25;;;10.30;96.90;;;;;;5014740;28;20105;-76
2021/11/04 11:21:10;;;;;;;16.30;8.35;;;10.30;96.90;;;;;;5015731;28;20029;-74
2021/11/04 11:23:37;;;;;;;16.17;9.02;;;10.30;96.90;;;;;;5014362;28;20331;-74
2021/11/04 11:26:04;;;;;;;18.30;8.93;;;10.30;96.90;;;;;;5014405;28;20017;-74
2021/11/04 11:28:35;;;;;;;17.10;8.40;;;10.20;96.90;;;;;;5015650;28;20022;-75
2021/11/04 11:31:12;;;;;;;16.08;8.60;;;10.30;97.00;;;;;;5015945;28;20041;-73
2021/11/04 11:33:39;;;;;;;14.07;7.88;;;10.30;97.00;;;;;;5014120;28;20058;-74
2021/11/04 11:36:12;;;;;;;15.55;9.13;;;10.30;97.00;;;;;;5013699;28;20126;-74
2021/11/04 11:38:57;;;;;;;14.23;7.45;;;10.30;97.00;;;;;;5014184;28;20057;-75
2021/11/04 11:41:43;;;;;;;15.50;8.98;;;10.30;97.00;;;;;;5014063;28;20409;-74
2021/11/04 11:44:09;;;;;;;13.95;8.07;;;10.30;97.00;;;;;;5006673;28;20425;-75
2021/11/04 11:47:03;;;;;;;17.35;7.75;;;10.30;97.00;;;;;;5013586;28;20017;-75
2021/11/04 11:49:33;;;;;;;14.80;7.97;;;10.30;97.00;;;;;;5015179;28;20024;-75
2021/11/04 11:51:59;;;;;;;14.63;7.53;;;10.20;97.00;;;;;;5015052;28;20057;-75
2021/11/04 11:54:46;;;;;;;13.52;7.22;;;10.20;97.00;;;;;;5015093;28;20025;-75
2021/11/04 11:57:12;;;;;;;11.98;6.72;;;10.30;97.00;;;;;;5013650;28;20026;-75
2021/11/04 12:00:08;;;;;;;12.95;8.13;;;10.40;96.90;;;;;;5014634;28;20018;-75
2021/11/04 12:02:34;;;;;;;16.70;8.25;;;10.50;96.80;;;;;;5001016;28;20350;-76
2021/11/04 12:05:21;;;;;;;12.15;7.03;;;10.50;96.80;;;;;;5014841;28;20018;-75
2021/11/04 12:07:54;;;;;;;13.80;7.32;;;10.60;96.70;;;;;;5014431;28;20029;-75
2021/11/04 12:10:32;;;;;;;15.82;7.65;;;10.60;96.60;;;;;;5014555;28;20465;-74
2021/11/04 12:12:59;;;;;;;17.42;8.05;;;10.70;96.60;;;;;;5013172;28;20029;-75
2021/11/04 12:15:25;;;;;;;11.77;7.25;;;10.70;96.50;;;;;;5014699;28;20045;-74
2021/11/04 12:18:12;;;;;;;16.27;7.57;;;10.80;96.50;;;;;;5014761;28;20529;-75
2021/11/04 12:20:48;;;;;;;15.68;8.15;;;10.80;96.50;;;;;;5014644;28;20030;-75
2021/11/04 12:23:14;;;;;;;12.38;7.43;;;10.80;96.50;;;;;;5014919;28;20029;-74
2021/11/04 12:25:43;;;;;;;13.23;7.07;;;10.80;96.50;;;;;;5014564;28;20026;-75
2021/11/04 12:28:08;;;;;;;13.88;7.60;;;10.80;96.50;;;;;;5014844;28;20033;-75
2021/11/04 12:30:34;;;;;;;17.23;8.20;;;10.80;96.50;;;;;;5013342;28;20022;-75
2021/11/04 12:33:08;;;;;;;15.75;7.57;;;10.80;96.50;;;;;;5014023;28;20056;-75
2021/11/04 12:35:51;;;;;;;13.38;7.72;;;10.90;96.50;;;;;;5014481;28;20029;-75
2021/11/04 12:38:37;;;;;;;12.77;7.18;;;10.80;96.50;;;;;;5014423;28;20013;-75
2021/11/04 12:41:16;;;;;;;12.20;7.32;;;10.80;96.50;;;;;;5014229;28;20022;-75
2021/11/04 12:43:43;;;;;;;11.98;7.10;;;10.80;96.60;;;;;;5014263;28;20018;-75
2021/11/04 12:46:16;;;;;;;12.73;7.00;;;10.80;96.60;;;;;;5014042;28;20021;-75
2021/11/04 12:48:50;;;;;;;13.40;7.65;;;10.80;96.50;;;;;;5013166;28;20061;-75
2021/11/04 12:51:17;;;;;;;12.93;7.38;;;10.80;96.50;;;;;;5014008;28;20061;-75